Wallblake, Anguilla

6:35 PM AST on December 26, 2014 (GMT -0400)
West End, Anguilla | Change Station
CLOSE
Current Station
Personal Weather Station
Location: Anguilla,
Elevation: 46 ft
Nearby Weather Stations

Elev 46 ft 18.17 °N, 63.15 °W | Updated 4 minutes ago

Partly Cloudy
Partly Cloudy
74.4 °F
Feels Like 76 °F
N
5.0
Wind Variable Wind from ENE
Gusts 11.0 mph

Today
High -- | Low -- °F
--% Chance of Precip.
Yesterday
High -- | Low -- °F
Precip. -- in
6:41 AM 5:44 PM
Waxing Crescent, 30% visible
Pressure 30.01 in
Visibility 6.2 miles
Clouds Few 2000 ft
Heat Index 76 °F
Dew Point 65 °F
Humidity 72%
Rainfall 0.00 in
Snow Depth Not available.
UV 0 out of 12
Pollen Not available.
Air Quality Not available.
Flu Activity Not available.
METAR TNCM 262200Z 07008KT 9999 FEW020 27/18 Q1016 A3002 NOSIG

More Conditions Fewer Conditions

Pressure 30.01 in
Visibility 6.2 miles
Clouds Few 2000 ft
Heat Index 76 °F
Dew Point 65 °F
Humidity 72%
Rainfall 0.00 in
Snow Depth Not available.
UV 0 out of 12
Pollen Not available.
Air Quality Not available.
Flu Activity Not available.
METAR TNCM 262200Z 07008KT 9999 FEW020 27/18 Q1016 A3002 NOSIG

More Conditions Fewer Conditions

10-Day Weather Forecast

Almanac

Astronomy

Dec. 26, 2014 Rise Set
Actual Time
Civil Twilight
Nautical Twilight
Astronomical Twilight
Moon
Length of Visible Light
Length of Day
Tomorrow will be .
, % of the Moon is Illuminated

Today's Extremes

Country Highs Country Lows

Community

WunderPhotos

Upload Photos

1,780,740 photos uploaded!

WunderBlogs® & News

Nearby

Air Quality

  Air Quality AQ Index Pollutant
Not available.

Snow Depth

Station Depth Elevation

Earthquake Activity

City Distance Mag. Time & Date
Minimum magnitude displayed is 2.5.

Coastal Water Temperatures

Place Temperature

Nearby Weather Stations